Terminal Aerodrome Forecast
Issued by NWS

Current Version | Previous Version | Text Only | Print | Product List | Glossary On
Versions: 1 2 3 4 5 6 7 8 9 10 11 12 13 14 15 16 17 18 19 20 21
000
FTUS43 KAPX 221504 AAC
TAFAPN
TAF AMD
KAPN 221504Z 2215/2312 21007KT 5SM BR OVC003
     FM221700 20006KT 6SM BR BKN006
     FM221900 18006KT P6SM FEW008 SCT100 BKN150
     FM230400 19005KT P6SM BKN020
     FM230800 25006KT P6SM OVC020=

USA.gov is the U.S. government's official web portal to all federal, state and local government web resources and services.